Time;durP1;ratioP1;P1;durP2;ratioP2;P2;SDS_P1;SDS_P2;PMS_P1;PMS_P2;Temp;Humidity;BMP_temperature;BMP_pressure;BME280_temperature;BME280_humidity;BME280_pressure;Samples;Min_cycle;Max_cycle;Signal;HPM_P1;HPM_P2
2022/04/02 00:02:04;;;;;;;5.45;1.95;;;;;;;1.85;37.14;100437.03;5073234;28;20068;-69
2022/04/02 00:04:31;;;;;;;7.57;2.13;;;;;;;2.43;36.45;100435.41;5068679;28;20076;-69
2022/04/02 00:06:58;;;;;;;8.80;2.40;;;;;;;2.84;36.01;100435.91;5073532;28;20049;-69
2022/04/02 00:09:24;;;;;;;7.10;2.70;;;;;;;2.65;36.21;100434.66;5074334;28;20135;-70
2022/04/02 00:11:51;;;;;;;6.00;2.25;;;;;;;2.46;36.63;100446.75;5074021;28;20094;-70
2022/04/02 00:14:17;;;;;;;7.60;2.45;;;;;;;2.53;36.00;100445.34;5073803;28;20075;-70
2022/04/02 00:16:44;;;;;;;7.03;2.80;;;;;;;1.90;37.64;100439.34;5072677;28;20045;-70
2022/04/02 00:19:10;;;;;;;8.02;2.40;;;;;;;1.76;38.33;100436.88;5073037;28;20078;-69
2022/04/02 00:21:38;;;;;;;8.00;2.40;;;;;;;1.99;37.40;100440.50;5073451;28;20072;-69
2022/04/02 00:24:05;;;;;;;10.48;2.30;;;;;;;1.90;38.07;100440.19;5073107;28;20048;-69
2022/04/02 00:26:31;;;;;;;8.57;2.53;;;;;;;2.43;36.96;100438.06;5073111;28;20056;-70
2022/04/02 00:28:58;;;;;;;7.70;2.40;;;;;;;2.16;37.65;100445.41;5070219;28;20139;-69
2022/04/02 00:31:24;;;;;;;4.07;2.17;;;;;;;2.43;37.02;100430.13;5063100;28;20500;-70
2022/04/02 00:33:51;;;;;;;6.88;2.30;;;;;;;1.84;38.32;100445.91;5072624;28;20040;-70
2022/04/02 00:36:19;;;;;;;8.48;2.58;;;;;;;2.45;37.48;100440.63;5073611;28;20071;-69
2022/04/02 00:38:46;;;;;;;12.80;2.42;;;;;;;2.11;37.51;100442.25;5073398;28;20055;-69
2022/04/02 00:41:15;;;;;;;7.32;2.08;;;;;;;1.76;38.79;100432.41;5072344;28;20052;-69
2022/04/02 00:44:09;;;;;;;10.38;2.38;;;;;;;2.08;38.17;100437.19;5073127;28;20064;-69
2022/04/02 00:46:36;;;;;;;7.13;2.90;;;;;;;2.38;37.68;100434.09;5073063;28;20075;-69
2022/04/02 00:49:04;;;;;;;10.20;2.33;;;;;;;2.35;37.60;100435.16;5072113;28;20060;-69
2022/04/02 00:51:32;;;;;;;5.32;2.42;;;;;;;1.40;40.02;100443.78;5073500;28;20104;-69
2022/04/02 00:53:59;;;;;;;5.45;2.17;;;;;;;1.85;39.33;100441.47;5072111;28;20048;-69
2022/04/02 00:56:26;;;;;;;6.97;2.63;;;;;;;1.75;39.32;100438.66;5072788;28;20040;-69
2022/04/02 00:58:53;;;;;;;9.55;2.80;;;;;;;2.41;37.79;100437.34;5073494;28;20128;-69
2022/04/02 01:01:19;;;;;;;11.88;3.97;;;;;;;2.61;37.86;100443.78;5061080;28;20068;-70
2022/04/02 01:03:46;;;;;;;8.93;2.83;;;;;;;2.00;39.14;100444.84;5063689;28;20048;-70
2022/04/02 01:09:59;;;;;;;11.63;2.85;;;;;;;2.16;39.44;100453.34;5071394;28;20102;-69
2022/04/02 01:12:26;;;;;;;5.35;2.38;;;;;;;2.34;38.69;100454.66;5054626;28;20044;-69
2022/04/02 01:14:52;;;;;;;8.15;2.60;;;;;;;2.22;38.87;100455.53;5072144;28;20120;-70
2022/04/02 01:17:20;;;;;;;6.50;2.88;;;;;;;1.75;39.95;100454.53;5071545;28;20045;-69
2022/04/02 01:19:47;;;;;;;8.82;4.20;;;;;;;2.34;38.50;100452.00;5054452;28;20067;-69
2022/04/02 01:22:13;;;;;;;6.60;2.70;;;;;;;1.99;39.74;100461.66;5071412;28;20060;-70
2022/04/02 01:24:40;;;;;;;9.25;2.90;;;;;;;2.44;38.70;100452.13;5072607;28;20102;-69
2022/04/02 01:27:06;;;;;;;8.73;2.40;;;;;;;2.17;39.31;100460.34;5071629;28;20500;-69
2022/04/02 01:29:33;;;;;;;7.88;2.30;;;;;;;1.85;39.81;100460.81;5071670;28;20135;-69
2022/04/02 01:32:00;;;;;;;9.13;2.83;;;;;;;2.20;39.81;100468.06;5072092;28;20143;-69
2022/04/02 01:34:28;;;;;;;6.93;2.30;;;;;;;2.38;38.98;100457.91;5073069;28;20045;-69
2022/04/02 01:36:55;;;;;;;7.40;2.35;;;;;;;1.82;40.07;100463.72;5068511;28;20119;-69
2022/04/02 01:39:21;;;;;;;8.50;2.47;;;;;;;1.73;40.28;100456.44;5071919;28;20040;-69
2022/04/02 01:41:48;;;;;;;5.95;2.20;;;;;;;2.11;40.07;100468.72;5071512;28;20116;-69
2022/04/02 01:44:15;;;;;;;8.40;2.50;;;;;;;2.14;39.77;100460.56;5071549;28;20049;-69
2022/04/02 01:46:41;;;;;;;7.40;2.50;;;;;;;2.09;40.29;100463.53;5071433;28;20055;-69
2022/04/02 01:49:07;;;;;;;9.35;2.25;;;;;;;2.37;39.91;100457.06;5071010;28;20053;-69
2022/04/02 01:51:34;;;;;;;7.35;2.83;;;;;;;1.90;40.71;100456.06;5070971;28;20526;-69
2022/04/02 01:54:00;;;;;;;12.45;2.60;;;;;;;1.63;41.49;100458.03;5070607;28;20408;-69
2022/04/02 01:56:27;;;;;;;4.63;2.35;;;;;;;2.26;40.11;100461.47;5072541;28;20078;-69
2022/04/02 01:58:53;;;;;;;16.67;6.60;;;;;;;2.59;39.65;100458.13;5060493;28;20046;-69
2022/04/02 02:01:20;;;;;;;7.78;3.78;;;;;;;2.16;40.26;100451.53;5070941;28;20131;-69
2022/04/02 02:03:47;;;;;;;6.75;2.60;;;;;;;2.12;40.92;100465.13;5071190;28;20488;-69
2022/04/02 02:06:13;;;;;;;7.35;2.40;;;;;;;2.06;40.78;100454.97;5070896;28;20147;-69
2022/04/02 02:08:40;;;;;;;10.35;2.60;;;;;;;2.01;41.23;100460.59;5070790;28;20139;-69
2022/04/02 02:11:06;;;;;;;7.55;2.83;;;;;;;2.35;40.70;100453.69;5070380;28;20060;-69
2022/04/02 02:13:33;;;;;;;11.32;2.78;;;;;;;2.07;41.22;100465.47;5071016;28;20071;-69
2022/04/02 02:15:59;;;;;;;9.13;2.55;;;;;;;1.91;41.52;100457.75;5071329;28;20463;-69
2022/04/02 02:18:26;;;;;;;6.80;2.60;;;;;;;2.31;41.40;100465.47;5072335;28;20072;-69
2022/04/02 02:20:53;;;;;;;6.13;2.42;;;;;;;2.00;41.51;100455.44;5070657;28;20068;-69
2022/04/02 02:23:19;;;;;;;9.85;2.25;;;;;;;2.47;40.85;100451.06;5071312;28;20071;-69
2022/04/02 02:25:46;;;;;;;8.05;2.80;;;;;;;2.41;41.07;100453.25;5070646;28;20361;-69
2022/04/02 02:28:12;;;;;;;6.85;2.70;;;;;;;2.71;40.42;100456.34;5071013;28;20431;-69
2022/04/02 02:30:39;;;;;;;5.38;1.80;;;;;;;2.20;41.58;100457.47;5071452;28;20048;-70
2022/04/02 02:35:50;;;;;;;8.52;2.40;;;;;;;2.48;41.09;100460.69;5070708;28;20139;-70
2022/04/02 02:38:21;;;;;;;9.70;2.70;;;;;;;2.40;41.76;100458.63;5071967;28;20051;-69
2022/04/02 02:40:50;;;;;;;8.80;2.60;;;;;;;2.27;41.59;100457.84;5061587;28;20127;-69
2022/04/02 02:43:18;;;;;;;4.43;2.13;;;;;;;1.98;42.73;100454.69;5070606;28;20556;-70
2022/04/02 02:45:44;;;;;;;11.35;2.45;;;;;;;2.22;42.32;100454.72;5070075;28;20463;-69
2022/04/02 02:48:11;;;;;;;9.70;2.13;;;;;;;2.48;41.61;100460.69;5070263;28;20048;-69
2022/04/02 02:50:38;;;;;;;5.53;2.33;;;;;;;2.53;41.60;100466.50;5071424;28;20036;-69
2022/04/02 02:53:04;;;;;;;8.05;2.20;;;;;;;2.27;41.96;100461.38;5070740;28;20059;-69
2022/04/02 02:55:31;;;;;;;5.30;2.30;;;;;;;2.54;41.72;100460.25;5069843;28;20480;-69
2022/04/02 02:57:57;;;;;;;20.48;6.03;;;;;;;2.61;41.76;100461.47;5071741;28;20131;-69
2022/04/02 03:00:24;;;;;;;10.23;3.15;;;;;;;2.31;42.09;100459.34;5068334;28;20044;-70
2022/04/02 03:02:50;;;;;;;7.68;2.40;;;;;;;2.48;41.90;100453.63;5070070;28;20048;-70
2022/04/02 03:05:17;;;;;;;7.13;2.15;;;;;;;2.45;41.90;100455.66;5071027;28;20459;-69
2022/04/02 03:07:49;;;;;;;6.25;2.10;;;;;;;2.48;41.73;100460.69;5059667;28;20102;-70
2022/04/02 03:10:24;;;;;;;9.70;2.30;;;;;;;2.58;41.96;100457.28;5070763;28;20049;-69
2022/04/02 03:12:52;;;;;;;5.28;1.98;;;;;;;2.13;42.24;100457.09;5069814;28;20068;-69
2022/04/02 03:15:19;;;;;;;4.75;2.17;;;;;;;2.46;42.29;100452.88;5063143;28;20139;-69
2022/04/02 03:17:49;;;;;;;5.03;2.05;;;;;;;2.18;42.18;100459.38;5069072;28;20427;-69
2022/04/02 03:20:17;;;;;;;10.55;2.15;;;;;;;1.95;43.15;100461.88;5068602;28;20044;-69
2022/04/02 03:22:45;;;;;;;6.43;2.53;;;;;;;2.45;42.15;100460.97;5069286;28;20041;-69
2022/04/02 03:25:14;;;;;;;22.98;7.40;;;;;;;2.90;40.91;100462.78;5069464;28;20127;-69
2022/04/02 03:27:43;;;;;;;9.23;3.88;;;;;;;2.40;42.34;100471.88;5069382;28;20397;-69
2022/04/02 03:30:12;;;;;;;9.38;2.20;;;;;;;2.51;42.43;100468.41;5070390;28;20102;-68
2022/04/02 03:32:39;;;;;;;6.88;2.30;;;;;;;2.45;42.18;100472.38;5069401;28;20094;-69
2022/04/02 03:35:06;;;;;;;11.48;2.50;;;;;;;2.24;42.22;100480.13;5069369;28;20140;-69
2022/04/02 03:37:37;;;;;;;8.73;3.22;;;;;;;2.58;41.92;100474.94;5070463;28;20048;-69
2022/04/02 03:40:07;;;;;;;12.47;1.83;;;;;;;2.44;41.97;100475.97;5069842;28;20068;-69
2022/04/02 03:42:35;;;;;;;7.90;2.05;;;;;;;2.60;42.00;100471.22;5069409;28;20041;-69
2022/04/02 03:45:01;;;;;;;10.23;2.78;;;;;;;2.59;41.87;100479.31;5069754;28;20074;-69
2022/04/02 03:47:27;;;;;;;8.77;2.72;;;;;;;2.63;42.30;100476.31;5070102;28;20396;-69
2022/04/02 03:49:54;;;;;;;6.45;2.17;;;;;;;2.51;41.94;100476.38;5069318;28;20560;-70
2022/04/02 03:52:21;;;;;;;10.88;2.25;;;;;;;2.79;41.52;100481.31;5070874;28;20052;-69
2022/04/02 03:54:47;;;;;;;10.15;2.53;;;;;;;2.78;41.28;100484.06;5069693;28;20048;-69
2022/04/02 03:57:15;;;;;;;6.20;2.00;;;;;;;2.90;41.13;100483.97;5052019;28;20135;-69
2022/04/02 03:59:42;;;;;;;11.00;2.58;;;;;;;2.58;41.29;100488.19;5069925;28;20539;-69
2022/04/02 04:02:10;;;;;;;4.97;1.92;;;;;;;2.52;42.11;100481.56;5066159;28;20132;-69
2022/04/02 04:04:37;;;;;;;9.85;2.40;;;;;;;2.35;42.38;100492.56;5068796;28;20052;-69
2022/04/02 04:07:04;;;;;;;10.50;2.72;;;;;;;2.29;42.18;100496.50;5067714;28;20139;-69
2022/04/02 04:09:31;;;;;;;6.07;1.90;;;;;;;2.70;42.11;100491.75;5069815;28;20136;-69
2022/04/02 04:11:58;;;;;;;8.82;2.10;;;;;;;2.46;41.97;100495.25;5070360;28;20064;-70
2022/04/02 04:14:25;;;;;;;9.13;2.42;;;;;;;2.13;42.74;100504.72;5070520;28;20083;-69
2022/04/02 04:16:53;;;;;;;13.70;4.03;;;;;;;2.30;42.76;100500.81;5070167;28;20044;-69
2022/04/02 04:19:21;;;;;;;9.40;2.20;;;;;;;2.49;41.93;100499.47;5069214;28;20087;-70
2022/04/02 04:21:48;;;;;;;9.13;2.70;;;;;;;2.71;41.87;100504.00;5069357;28;20511;-69
2022/04/02 04:24:15;;;;;;;8.52;2.28;;;;;;;2.72;41.84;100506.56;5072904;28;20132;-69
2022/04/02 04:26:42;;;;;;;6.30;2.67;;;;;;;2.70;41.91;100508.47;5072649;28;20048;-69
2022/04/02 04:29:08;;;;;;;11.55;2.75;;;;;;;2.64;42.20;100512.41;5072964;28;20079;-69
2022/04/02 04:31:36;;;;;;;10.38;2.65;;;;;;;2.53;42.34;100517.66;5072570;28;20132;-69
2022/04/02 04:34:03;;;;;;;7.47;2.25;;;;;;;2.80;42.14;100520.06;5072362;28;20494;-69
2022/04/02 04:36:29;;;;;;;7.78;2.50;;;;;;;2.52;42.40;100528.38;5072802;28;20072;-69
2022/04/02 04:38:57;;;;;;;10.70;2.63;;;;;;;2.53;42.06;100522.97;5073456;28;20044;-69
2022/04/02 04:41:28;;;;;;;11.75;3.10;;;;;;;2.85;41.50;100517.91;5072969;28;20503;-69
2022/04/02 04:43:54;;;;;;;10.63;2.58;;;;;;;2.82;41.69;100525.25;5071621;28;20055;-69
2022/04/02 04:46:21;;;;;;;6.95;2.08;;;;;;;2.80;41.90;100533.31;5072605;28;20469;-69
2022/04/02 04:48:47;;;;;;;6.82;2.60;;;;;;;2.72;42.04;100535.72;5068226;28;20411;-69
2022/04/02 04:51:14;;;;;;;10.27;2.72;;;;;;;2.72;42.05;100533.06;5071823;28;20048;-69
2022/04/02 04:53:41;;;;;;;8.82;2.70;;;;;;;2.60;41.85;100539.25;5072303;28;20132;-69
2022/04/02 04:56:08;;;;;;;11.57;3.08;;;;;;;2.80;42.04;100535.13;5072350;28;20074;-70
2022/04/02 04:58:34;;;;;;;7.55;2.47;;;;;;;2.49;42.67;100540.03;5072670;28;20067;-70
2022/04/02 05:01:01;;;;;;;8.55;2.40;;;;;;;2.87;41.87;100541.66;5072252;28;20079;-70
2022/04/02 05:03:32;;;;;;;10.63;2.75;;;;;;;2.90;41.78;100542.28;5071735;28;20044;-70
2022/04/02 05:06:00;;;;;;;11.32;2.67;;;;;;;2.75;41.97;100548.69;5072810;28;20057;-70
2022/04/02 05:08:30;;;;;;;7.90;2.50;;;;;;;2.98;40.93;100549.63;5071215;28;20068;-70
2022/04/02 05:10:57;;;;;;;7.43;2.58;;;;;;;2.38;42.68;100551.41;5069714;28;20064;-70
2022/04/02 05:13:23;;;;;;;5.82;2.42;;;;;;;2.38;43.08;100551.41;5069504;28;20493;-70
2022/04/02 05:15:50;;;;;;;8.43;2.10;;;;;;;2.81;41.98;100555.34;5068212;28;20059;-70
2022/04/02 05:18:16;;;;;;;6.63;2.13;;;;;;;2.30;42.76;100564.34;5071367;28;20075;-70
2022/04/02 05:20:43;;;;;;;10.38;2.42;;;;;;;2.84;41.89;100561.28;5071936;28;20123;-70
2022/04/02 05:23:09;;;;;;;6.13;2.60;;;;;;;2.90;41.77;100562.63;5053792;28;20123;-70
2022/04/02 05:25:38;;;;;;;6.30;1.67;;;;;;;2.69;41.84;100565.06;5070646;28;20048;-70
2022/04/02 05:28:05;;;;;;;10.13;2.90;;;;;;;2.56;42.13;100577.50;5072157;28;20118;-70
2022/04/02 05:30:33;;;;;;;8.23;2.30;;;;;;;2.76;42.23;100566.31;5072351;28;20127;-70
2022/04/02 05:33:00;;;;;;;12.05;2.67;;;;;;;2.72;42.14;100582.50;5071536;28;20068;-69
2022/04/02 05:35:26;;;;;;;6.97;2.33;;;;;;;3.04;41.37;100577.50;5070531;28;20135;-70
2022/04/02 05:37:56;;;;;;;6.07;2.22;;;;;;;3.19;41.46;100578.97;5071920;28;20048;-70
2022/04/02 05:40:23;;;;;;;5.03;2.38;;;;;;;2.84;41.96;100585.13;5070337;28;20052;-69
2022/04/02 05:42:49;;;;;;;13.50;2.42;;;;;;;3.04;41.52;100590.75;5071538;28;20520;-70
2022/04/02 05:45:16;;;;;;;5.55;2.00;;;;;;;2.40;42.58;100591.84;5071414;28;20068;-69
2022/04/02 05:47:50;;;;;;;7.15;2.75;;;;;;;3.00;41.92;100590.13;5071094;28;20123;-69
2022/04/02 05:50:20;;;;;;;6.85;2.03;;;;;;;2.46;42.42;100587.09;5070854;28;20076;-69
2022/04/02 05:53:03;;;;;;;8.77;2.35;;;;;;;2.66;41.98;100591.78;5070798;28;20542;-70
2022/04/02 05:55:31;;;;;;;5.45;2.00;;;;;;;3.08;41.75;100593.03;5071137;28;20410;-69
2022/04/02 05:57:58;;;;;;;6.72;2.47;;;;;;;3.06;41.56;100602.06;5070426;28;20476;-69
2022/04/02 06:00:25;;;;;;;3.70;1.58;;;;;;;3.64;40.40;100605.59;5070829;28;20053;-69
2022/04/02 06:02:58;;;;;;;7.63;2.17;;;;;;;3.24;40.56;100597.19;5071031;28;20093;-69
2022/04/02 06:05:24;;;;;;;9.43;2.42;;;;;;;3.27;40.78;100605.75;5071310;28;20090;-69
2022/04/02 06:07:51;;;;;;;7.90;2.47;;;;;;;3.60;40.21;100614.75;5070262;28;20051;-69
2022/04/02 06:10:17;;;;;;;7.22;2.33;;;;;;;3.22;40.87;100615.88;5066112;28;20175;-69
2022/04/02 06:12:44;;;;;;;3.95;1.92;;;;;;;3.46;41.15;100622.94;5070523;28;20445;-69
2022/04/02 06:15:10;;;;;;;9.45;2.10;;;;;;;3.32;40.54;100618.69;5070128;28;20164;-70
2022/04/02 06:17:37;;;;;;;9.52;2.55;;;;;;;3.49;40.39;100623.53;5070666;28;20056;-70
2022/04/02 06:20:05;;;;;;;9.18;2.50;;;;;;;3.35;40.88;100627.25;5071478;28;20147;-69
2022/04/02 06:22:32;;;;;;;11.30;2.50;;;;;;;3.61;40.23;100622.59;5070907;28;20064;-69
2022/04/02 06:24:58;;;;;;;8.82;2.17;;;;;;;3.59;40.16;100623.69;5070726;28;20063;-69
2022/04/02 06:27:25;;;;;;;9.70;2.20;;;;;;;3.64;39.86;100629.47;5071176;28;20131;-69
2022/04/02 06:29:51;;;;;;;9.45;2.30;;;;;;;3.91;39.69;100636.28;5068334;28;20475;-70
2022/04/02 06:32:20;;;;;;;5.20;1.80;;;;;;;3.60;40.51;100635.97;5069820;28;20076;-69
2022/04/02 06:34:46;;;;;;;10.75;2.90;;;;;;;3.81;39.78;100639.63;5070118;28;20185;-70
2022/04/02 06:37:13;;;;;;;10.70;2.20;;;;;;;3.49;40.18;100647.41;5070547;28;20071;-69
2022/04/02 06:39:39;;;;;;;11.57;2.35;;;;;;;3.78;40.30;100634.56;5070354;28;20131;-69
2022/04/02 06:42:06;;;;;;;10.20;2.28;;;;;;;4.11;39.42;100630.25;5069995;28;20131;-69
2022/04/02 06:44:32;;;;;;;10.27;2.30;;;;;;;4.10;39.17;100629.41;5071118;28;20119;-69
2022/04/02 06:47:00;;;;;;;6.15;2.25;;;;;;;4.28;38.92;100648.38;5070186;28;20072;-70
2022/04/02 06:49:26;;;;;;;9.88;3.00;;;;;;;3.89;39.44;100640.84;5069434;28;20136;-69
2022/04/02 06:51:52;;;;;;;9.48;2.80;;;;;;;4.65;38.50;100637.47;5069172;28;20098;-69
2022/04/02 06:54:19;;;;;;;7.57;2.67;;;;;;;3.96;39.56;100637.59;5070259;28;20052;-70
2022/04/02 06:56:48;;;;;;;7.60;2.38;;;;;;;4.22;38.88;100638.22;5070845;28;20044;-70
2022/04/02 06:59:14;;;;;;;8.98;2.28;;;;;;;3.99;39.27;100636.50;5070376;28;20449;-70
2022/04/02 07:01:41;;;;;;;8.45;2.55;;;;;;;4.28;38.82;100637.75;5070106;28;20049;-69
2022/04/02 07:04:08;;;;;;;7.10;2.38;;;;;;;4.70;37.74;100632.63;5070170;28;20515;-70
2022/04/02 07:06:36;;;;;;;6.13;2.20;;;;;;;5.00;37.43;100628.44;5070547;28;20504;-70
2022/04/02 07:09:04;;;;;;;10.85;2.25;;;;;;;4.79;37.61;100637.19;5070286;28;20079;-70
2022/04/02 07:11:31;;;;;;;7.28;2.22;;;;;;;4.88;37.23;100642.75;5070145;28;20044;-70
2022/04/02 07:13:58;;;;;;;7.90;2.08;;;;;;;5.05;37.20;100626.25;5069935;28;20127;-70
2022/04/02 07:16:27;;;;;;;6.03;1.85;;;;;;;5.73;36.03;100632.03;5067073;28;20044;-70
2022/04/02 07:18:55;;;;;;;10.38;2.05;;;;;;;5.74;35.83;100637.25;5068047;28;20041;-69
2022/04/02 07:21:26;;;;;;;8.10;2.25;;;;;;;5.48;36.46;100636.78;5066826;28;20579;-70
2022/04/02 07:23:53;;;;;;;6.15;1.83;;;;;;;5.59;35.62;100630.56;5063228;28;20051;-70
2022/04/02 07:26:20;;;;;;;10.65;2.30;;;;;;;5.38;36.14;100645.69;5068422;28;20048;-70
2022/04/02 07:28:47;;;;;;;11.93;2.13;;;;;;;5.20;36.98;100643.59;5067923;28;20068;-70
2022/04/02 07:31:14;;;;;;;6.18;1.98;;;;;;;5.19;37.01;100651.69;5067991;28;20123;-70
2022/04/02 07:33:40;;;;;;;10.20;1.90;;;;;;;5.49;36.37;100645.63;5068463;28;20044;-70
2022/04/02 07:36:28;;;;;;;11.98;2.30;;;;;;;5.22;36.85;100652.28;5068430;28;20484;-70
2022/04/02 07:39:01;;;;;;;7.45;2.30;;;;;;;4.74;37.30;100650.03;5067884;28;20067;-70
2022/04/02 07:41:44;;;;;;;7.32;1.83;;;;;;;5.00;37.17;100657.66;5066707;28;20079;-70
2022/04/02 07:44:32;;;;;;;14.32;2.42;;;;;;;5.17;36.89;100651.81;5068852;28;20053;-70
2022/04/02 07:46:59;;;;;;;6.05;2.30;;;;;;;5.03;37.11;100660.09;5068502;28;20488;-69
2022/04/02 07:49:28;;;;;;;5.18;2.20;;;;;;;4.93;37.15;100660.00;5058109;28;20053;-69
2022/04/02 07:51:56;;;;;;;8.57;2.30;;;;;;;4.75;37.56;100662.31;5070324;28;20457;-69
2022/04/02 07:54:27;;;;;;;11.10;2.00;;;;;;;4.68;38.13;100662.94;5067448;28;20080;-69
2022/04/02 07:57:02;;;;;;;11.63;2.30;;;;;;;5.12;36.80;100661.16;5068696;28;20508;-69
2022/04/02 07:59:37;;;;;;;7.13;1.80;;;;;;;4.66;37.37;100657.78;5073214;28;20578;-69
2022/04/02 08:02:04;;;;;;;4.65;2.28;;;;;;;4.39;38.60;100671.44;5074361;28;20485;-69
2022/04/02 08:04:31;;;;;;;4.75;2.05;;;;;;;4.50;37.95;100671.44;5073367;28;20393;-69
2022/04/02 08:06:57;;;;;;;9.75;2.10;;;;;;;4.81;37.95;100671.63;5072930;28;20040;-69
2022/04/02 08:09:26;;;;;;;6.82;2.03;;;;;;;5.16;36.70;100674.06;5072809;28;20131;-71
2022/04/02 08:11:53;;;;;;;10.80;2.67;;;;;;;4.70;37.22;100671.66;5053870;28;20049;-69
2022/04/02 08:14:21;;;;;;;4.63;2.00;;;;;;;4.66;37.32;100668.41;5071600;28;20555;-70
2022/04/02 08:16:48;;;;;;;4.13;1.67;;;;;;;4.69;36.70;100672.59;5078250;28;20365;-70
2022/04/02 08:19:20;;;;;;;8.05;2.10;;;;;;;4.67;36.81;100669.25;5074615;28;20079;-70
2022/04/02 08:21:47;;;;;;;;;;;;;;;4.62;36.23;100674.91;5071802;28;20123;-69
2022/04/02 08:24:13;;;;;;;4.50;1.85;;;;;;;4.56;36.01;100672.75;5070757;28;20041;-70
2022/04/02 08:26:51;;;;;;;5.38;1.80;;;;;;;4.58;35.28;100673.47;5070877;28;20115;-70
2022/04/02 08:29:51;;;;;;;7.57;1.50;;;;;;;4.18;35.62;100671.28;5077306;28;20048;-70
2022/04/02 08:32:44;;;;;;;4.50;1.80;;;;;;;4.63;34.33;100673.97;5074376;28;20476;-69
2022/04/02 08:35:12;;;;;;;8.88;2.25;;;;;;;4.40;34.76;100686.41;5077265;28;20048;-70
2022/04/02 08:37:56;;;;;;;7.32;1.90;;;;;;;4.06;34.67;100680.19;5078250;28;20135;-70
2022/04/02 08:41:00;;;;;;;6.55;1.98;;;;;;;4.19;34.32;100683.59;5071528;28;20075;-70
2022/04/02 08:44:09;;;;;;;8.20;2.83;;;;;;;4.58;33.69;100695.56;5069899;28;20127;-70
2022/04/02 08:46:54;;;;;;;4.78;1.85;;;;;;;4.05;33.01;100700.59;5064020;28;20044;-70
2022/04/02 08:49:23;;;;;;;6.35;1.55;;;;;;;3.88;32.42;100692.25;5070611;28;20123;-70
2022/04/02 08:52:34;;;;;;;2.97;1.30;;;;;;;4.39;31.31;100708.63;5070220;28;20107;-70
2022/04/02 08:55:11;;;;;;;3.00;1.35;;;;;;;4.12;31.11;100690.34;5072931;28;20127;-70
2022/04/02 08:57:53;;;;;;;5.03;1.50;;;;;;;4.09;30.49;100701.22;5072598;28;20047;-71
2022/04/02 09:00:25;;;;;;;4.40;1.65;;;;;;;4.37;30.26;100704.38;5072170;28;20540;-71
2022/04/02 09:03:29;;;;;;;3.40;1.50;;;;;;;4.25;30.43;100706.19;5069419;28;20443;-71
2022/04/02 09:06:18;;;;;;;7.20;1.63;;;;;;;4.52;30.27;100713.81;5055647;28;20136;-70
2022/04/02 09:09:07;;;;;;;4.25;1.48;;;;;;;4.08;30.32;100702.19;5069591;28;20551;-70
2022/04/02 09:12:16;;;;;;;5.10;1.83;;;;;;;3.83;30.90;100701.41;5070188;28;20068;-70
2022/04/02 09:15:02;;;;;;;10.88;2.13;;;;;;;4.60;30.34;100702.59;5069739;28;20064;-70
2022/04/02 09:17:53;;;;;;;5.50;1.50;;;;;;;5.14;29.15;100709.72;5044589;28;20132;-70
2022/04/02 09:20:42;;;;;;;8.05;1.90;;;;;;;4.50;29.79;100711.28;5071914;28;20123;-71
2022/04/02 09:23:34;;;;;;;4.53;1.85;;;;;;;4.52;29.75;100687.22;5073193;28;20097;-71
2022/04/02 09:26:28;;;;;;;5.53;2.75;;;;;;;4.59;29.65;100696.44;5072266;28;20044;-71
2022/04/02 09:29:27;;;;;;;5.55;1.30;;;;;;;4.94;29.24;100700.72;5044378;28;20106;-70
2022/04/02 09:32:31;;;;;;;5.13;1.95;;;;;;;6.07;27.96;100699.22;5041723;28;20068;-71
2022/04/02 09:35:20;;;;;;;6.57;1.77;;;;;;;6.56;27.03;100705.66;5071356;28;20123;-71
2022/04/02 09:38:25;;;;;;;7.47;1.70;;;;;;;7.12;26.39;100702.47;5070838;28;20548;-71
2022/04/02 09:40:52;;;;;;;10.60;1.80;;;;;;;7.07;26.30;100699.34;5069845;28;20132;-71
2022/04/02 09:43:26;;;;;;;6.25;1.60;;;;;;;7.26;25.83;100700.38;5072017;28;20128;-70
2022/04/02 09:46:17;;;;;;;3.88;1.48;;;;;;;6.28;26.34;100698.41;5071937;28;20057;-70
2022/04/02 09:48:58;;;;;;;7.97;1.80;;;;;;;5.94;26.96;100687.94;5072866;28;20495;-71
2022/04/02 09:51:31;;;;;;;7.68;1.65;;;;;;;5.07;28.76;100700.56;5069254;28;20048;-70
2022/04/02 09:54:28;;;;;;;8.40;1.88;;;;;;;6.31;27.98;100693.66;5071473;28;20067;-70
2022/04/02 09:57:07;;;;;;;5.57;1.55;;;;;;;6.22;27.33;100697.94;5071361;28;20123;-71
2022/04/02 10:00:08;;;;;;;2.97;1.40;;;;;;;7.07;26.21;100696.69;5071624;28;20123;-71
2022/04/02 10:02:49;;;;;;;6.88;1.70;;;;;;;7.40;25.38;100698.13;5071366;28;20587;-71
2022/04/02 10:05:26;;;;;;;7.47;1.73;;;;;;;7.68;25.27;100698.25;5071290;28;20135;-70
2022/04/02 10:08:17;;;;;;;6.93;1.92;;;;;;;7.65;25.22;100690.53;5071212;28;20067;-72
2022/04/02 10:10:46;;;;;;;7.68;1.92;;;;;;;7.92;25.32;100686.31;5070794;28;20064;-70
2022/04/02 10:13:13;;;;;;;5.40;1.90;;;;;;;7.31;25.89;100682.13;5070693;28;20045;-71
2022/04/02 10:15:42;;;;;;;3.15;1.67;;;;;;;7.08;25.77;100684.19;5071692;28;20047;-71
2022/04/02 10:18:11;;;;;;;11.20;2.25;;;;;;;7.85;25.13;100678.03;5072327;28;20119;-71
2022/04/02 10:20:38;;;;;;;7.65;1.73;;;;;;;7.44;25.30;100682.69;5071932;28;20443;-72
2022/04/02 10:23:21;;;;;;;6.00;1.70;;;;;;;7.09;25.87;100693.91;5071885;28;20036;-71
2022/04/02 10:26:17;;;;;;;3.35;1.48;;;;;;;6.96;26.19;100691.47;5070962;28;20044;-73
2022/04/02 10:29:12;;;;;;;8.57;1.98;;;;;;;7.57;25.78;100687.72;5070981;28;20394;-73
2022/04/02 10:31:49;;;;;;;4.13;1.55;;;;;;;8.43;24.07;100688.53;5070824;28;20097;-72
2022/04/02 10:34:34;;;;;;;7.82;1.83;;;;;;;8.48;23.78;100685.44;5069647;28;20399;-73
2022/04/02 10:37:14;;;;;;;8.98;2.50;;;;;;;8.50;24.12;100688.78;5071262;28;20079;-73
2022/04/02 10:39:58;;;;;;;4.47;1.73;;;;;;;7.30;25.03;100683.09;5072423;28;20119;-74
2022/04/02 10:42:34;;;;;;;8.68;1.67;;;;;;;7.26;24.68;100676.38;5070429;28;20050;-73
2022/04/02 10:45:07;;;;;;;6.57;1.70;;;;;;;7.63;24.39;100671.97;5070979;28;20499;-74
2022/04/02 10:48:09;;;;;;;3.95;1.90;;;;;;;8.06;24.56;100678.69;5070582;28;20496;-74
2022/04/02 10:50:37;;;;;;;5.22;1.73;;;;;;;7.64;24.58;100679.03;5066167;28;20134;-74
2022/04/02 10:53:05;;;;;;;11.57;2.28;;;;;;;8.73;23.35;100666.00;5071166;28;20045;-74
2022/04/02 10:55:32;;;;;;;4.95;2.38;;;;;;;7.77;24.18;100675.19;5071601;28;20040;-74
2022/04/02 10:57:59;;;;;;;5.25;2.38;;;;;;;7.39;24.41;100660.88;5070808;28;20111;-74
2022/04/02 11:00:27;;;;;;;4.55;1.90;;;;;;;7.01;25.22;100667.06;5070257;28;20123;-74
2022/04/02 11:03:05;;;;;;;15.30;2.60;;;;;;;7.51;24.71;100657.09;5070917;28;20052;-74
2022/04/02 11:05:36;;;;;;;6.05;2.22;;;;;;;7.02;25.09;100674.94;5070166;28;20072;-74
2022/04/02 11:08:05;;;;;;;5.70;2.17;;;;;;;6.60;26.14;100659.13;5070807;28;20060;-74
2022/04/02 11:10:35;;;;;;;8.45;2.38;;;;;;;7.20;25.08;100659.06;5069816;28;20045;-74
2022/04/02 11:13:04;;;;;;;3.63;2.00;;;;;;;6.20;26.31;100651.09;5068611;28;20556;-73
2022/04/02 11:15:40;;;;;;;7.70;2.17;;;;;;;7.55;24.98;100668.34;5066893;28;20071;-74
2022/04/02 11:18:17;;;;;;;6.70;2.00;;;;;;;7.16;26.02;100679.84;5069570;28;20427;-74
2022/04/02 11:20:44;;;;;;;4.80;2.80;;;;;;;8.35;27.45;100677.75;5069514;28;20237;-73
2022/04/02 11:23:17;;;;;;;14.18;2.78;;;;;;;8.06;25.34;100659.97;5069879;28;20067;-74
2022/04/02 11:25:49;;;;;;;5.45;1.88;;;;;;;7.78;25.29;100660.88;5069646;28;20059;-73
2022/04/02 11:28:18;;;;;;;4.35;1.70;;;;;;;8.03;24.83;100664.78;5070043;28;20420;-73
2022/04/02 11:31:03;;;;;;;3.90;1.52;;;;;;;8.14;24.16;100667.25;5070488;28;20553;-73
2022/04/02 11:33:32;;;;;;;3.30;1.38;;;;;;;8.03;23.73;100670.13;5069716;28;20449;-73
2022/04/02 11:36:06;;;;;;;3.65;1.55;;;;;;;7.67;24.24;100672.53;5069221;28;20143;-74
2022/04/02 11:38:53;;;;;;;10.50;1.77;;;;;;;7.70;24.51;100661.56;5070821;28;20517;-73
2022/04/02 11:41:31;;;;;;;7.75;2.20;;;;;;;7.30;25.14;100667.09;5069974;28;20132;-74
2022/04/02 11:44:11;;;;;;;5.10;1.55;;;;;;;7.45;25.73;100681.69;5070377;28;20079;-73
2022/04/02 11:46:55;;;;;;;10.43;2.05;;;;;;;6.97;27.00;100687.81;5070469;28;20045;-73
2022/04/02 11:49:31;;;;;;;9.70;1.67;;;;;;;6.87;27.92;100694.97;5064714;28;20102;-73
2022/04/02 11:52:07;;;;;;;6.32;1.83;;;;;;;6.33;29.50;100680.22;5070616;28;20123;-73
2022/04/02 11:54:59;;;;;;;7.15;2.45;;;;;;;6.07;30.37;100677.09;5068288;28;20134;-74
2022/04/02 11:57:26;;;;;;;7.07;2.35;;;;;;;6.76;30.24;100689.75;5065544;28;20044;-73
2022/04/02 11:59:57;;;;;;;6.72;1.73;;;;;;;6.83;30.29;100686.38;5069577;28;20132;-73